sensor_id;sensor_type;location;lat;lon;timestamp;pressure;altitude;pressure_sealevel;temperature;humidity
81354;BME280;70810;52.038;8.524;2023-10-08T00:01:39;100758.13;;;16.78;79.87
81354;BME280;70810;52.038;8.524;2023-10-08T00:04:09;100771.34;;;16.83;79.74
81354;BME280;70810;52.038;8.524;2023-10-08T00:06:51;100772.53;;;16.79;79.61
81354;BME280;70810;52.038;8.524;2023-10-08T00:09:33;100785.09;;;16.80;79.98
81354;BME280;70810;52.038;8.524;2023-10-08T00:12:02;100791.03;;;16.72;80.35
81354;BME280;70810;52.038;8.524;2023-10-08T00:14:29;100782.91;;;16.72;80.24
81354;BME280;70810;52.038;8.524;2023-10-08T00:16:58;100794.50;;;16.74;80.47
81354;BME280;70810;52.038;8.524;2023-10-08T00:19:25;100799.72;;;16.77;80.75
81354;BME280;70810;52.038;8.524;2023-10-08T00:21:58;100809.03;;;16.73;80.78
81354;BME280;70810;52.038;8.524;2023-10-08T00:24:30;100790.06;;;16.73;80.97
81354;BME280;70810;52.038;8.524;2023-10-08T00:27:00;100799.16;;;16.72;80.98
81354;BME280;70810;52.038;8.524;2023-10-08T00:29:32;100794.13;;;16.66;81.45
81354;BME280;70810;52.038;8.524;2023-10-08T00:38:24;100793.06;;;16.69;81.32
81354;BME280;70810;52.038;8.524;2023-10-08T00:40:57;100785.41;;;16.75;81.37
81354;BME280;70810;52.038;8.524;2023-10-08T00:43:31;100785.44;;;16.61;81.53
81354;BME280;70810;52.038;8.524;2023-10-08T00:45:59;100779.56;;;16.54;81.81
81354;BME280;70810;52.038;8.524;2023-10-08T00:48:26;100814.66;;;16.70;81.59
81354;BME280;70810;52.038;8.524;2023-10-08T00:50:55;100818.50;;;16.66;81.81
81354;BME280;70810;52.038;8.524;2023-10-08T00:53:35;100822.69;;;16.72;81.50
81354;BME280;70810;52.038;8.524;2023-10-08T00:56:05;100819.59;;;16.64;81.70
81354;BME280;70810;52.038;8.524;2023-10-08T00:58:39;100817.00;;;16.62;81.77
81354;BME280;70810;52.038;8.524;2023-10-08T01:01:06;100834.47;;;16.71;81.44
81354;BME280;70810;52.038;8.524;2023-10-08T01:04:05;100833.50;;;16.72;81.36
81354;BME280;70810;52.038;8.524;2023-10-08T01:06:47;100837.09;;;16.72;81.45
81354;BME280;70810;52.038;8.524;2023-10-08T01:48:22;100968.22;;;12.13;88.85
81354;BME280;70810;52.038;8.524;2023-10-08T01:50:57;100980.78;;;12.13;88.94
81354;BME280;70810;52.038;8.524;2023-10-08T01:53:26;100980.41;;;12.22;87.94
81354;BME280;70810;52.038;8.524;2023-10-08T01:55:53;101016.91;;;12.07;88.42
81354;BME280;70810;52.038;8.524;2023-10-08T01:58:21;101026.25;;;11.99;88.17
81354;BME280;70810;52.038;8.524;2023-10-08T02:00:48;101033.50;;;11.97;88.34
81354;BME280;70810;52.038;8.524;2023-10-08T02:03:17;101025.72;;;11.89;88.98
81354;BME280;70810;52.038;8.524;2023-10-08T02:05:46;101008.22;;;11.79;89.52
81354;BME280;70810;52.038;8.524;2023-10-08T02:08:13;101004.84;;;11.73;89.49
81354;BME280;70810;52.038;8.524;2023-10-08T02:10:43;100994.28;;;11.69;89.70
81354;BME280;70810;52.038;8.524;2023-10-08T02:13:17;100999.53;;;11.72;89.76
81354;BME280;70810;52.038;8.524;2023-10-08T02:15:54;100987.25;;;11.66;90.00
81354;BME280;70810;52.038;8.524;2023-10-08T02:18:42;100980.84;;;11.69;89.60
81354;BME280;70810;52.038;8.524;2023-10-08T02:21:26;100979.38;;;11.62;89.61
81354;BME280;70810;52.038;8.524;2023-10-08T02:23:54;100953.31;;;11.64;89.04
81354;BME280;70810;52.038;8.524;2023-10-08T02:26:22;100942.38;;;11.68;89.74
81354;BME280;70810;52.038;8.524;2023-10-08T02:28:49;100947.38;;;11.55;90.27
81354;BME280;70810;52.038;8.524;2023-10-08T02:31:17;100970.63;;;11.56;90.96
81354;BME280;70810;52.038;8.524;2023-10-08T02:33:44;100960.63;;;11.60;90.92
81354;BME280;70810;52.038;8.524;2023-10-08T02:36:10;100983.81;;;11.63;90.21
81354;BME280;70810;52.038;8.524;2023-10-08T02:38:40;100999.25;;;11.57;90.16
81354;BME280;70810;52.038;8.524;2023-10-08T02:41:07;100989.63;;;11.52;90.72
81354;BME280;70810;52.038;8.524;2023-10-08T02:43:34;100989.56;;;11.53;90.68
81354;BME280;70810;52.038;8.524;2023-10-08T02:46:02;100993.88;;;11.57;90.34
81354;BME280;70810;52.038;8.524;2023-10-08T02:48:33;100961.63;;;11.57;90.50
81354;BME280;70810;52.038;8.524;2023-10-08T02:50:59;100942.00;;;11.55;90.66
81354;BME280;70810;52.038;8.524;2023-10-08T02:53:41;100943.94;;;11.52;90.94
81354;BME280;70810;52.038;8.524;2023-10-08T02:56:09;100964.44;;;11.54;91.30
81354;BME280;70810;52.038;8.524;2023-10-08T02:58:38;101007.78;;;11.67;90.79
81354;BME280;70810;52.038;8.524;2023-10-08T03:01:07;101021.09;;;11.70;90.86
81354;BME280;70810;52.038;8.524;2023-10-08T03:03:38;101020.25;;;11.70;90.44
81354;BME280;70810;52.038;8.524;2023-10-08T03:06:05;101019.03;;;11.77;89.92
81354;BME280;70810;52.038;8.524;2023-10-08T03:08:37;101005.84;;;11.71;89.48
81354;BME280;70810;52.038;8.524;2023-10-08T03:11:09;101006.88;;;11.68;89.54
81354;BME280;70810;52.038;8.524;2023-10-08T03:13:43;101003.38;;;11.66;90.32
81354;BME280;70810;52.038;8.524;2023-10-08T03:16:12;101018.38;;;11.50;90.82
81354;BME280;70810;52.038;8.524;2023-10-08T03:18:40;101019.22;;;11.50;90.99
81354;BME280;70810;52.038;8.524;2023-10-08T03:21:08;101024.75;;;11.47;91.71
81354;BME280;70810;52.038;8.524;2023-10-08T03:23:45;101026.31;;;11.53;90.81
81354;BME280;70810;52.038;8.524;2023-10-08T03:26:14;101032.94;;;11.44;90.81
81354;BME280;70810;52.038;8.524;2023-10-08T03:28:59;101025.78;;;11.21;91.38
81354;BME280;70810;52.038;8.524;2023-10-08T03:31:31;101061.81;;;10.92;90.13
81354;BME280;70810;52.038;8.524;2023-10-08T03:34:16;101036.59;;;10.72;91.32
81354;BME280;70810;52.038;8.524;2023-10-08T03:36:44;101047.63;;;10.64;92.12
81354;BME280;70810;52.038;8.524;2023-10-08T03:39:11;101052.97;;;10.64;92.37
81354;BME280;70810;52.038;8.524;2023-10-08T03:41:41;101057.41;;;10.66;92.27
81354;BME280;70810;52.038;8.524;2023-10-08T03:44:17;101051.56;;;10.54;91.54
81354;BME280;70810;52.038;8.524;2023-10-08T03:46:45;101056.16;;;10.51;91.97
81354;BME280;70810;52.038;8.524;2023-10-08T03:49:13;101059.16;;;10.41;91.53
81354;BME280;70810;52.038;8.524;2023-10-08T03:51:51;101066.34;;;10.41;91.65
81354;BME280;70810;52.038;8.524;2023-10-08T03:54:18;101069.47;;;10.27;89.98
81354;BME280;70810;52.038;8.524;2023-10-08T03:56:54;101068.88;;;10.19;91.24
81354;BME280;70810;52.038;8.524;2023-10-08T03:59:21;101073.47;;;10.15;90.60
81354;BME280;70810;52.038;8.524;2023-10-08T04:01:56;101079.59;;;10.19;91.28
81354;BME280;70810;52.038;8.524;2023-10-08T04:04:26;101080.31;;;10.24;91.43
81354;BME280;70810;52.038;8.524;2023-10-08T04:06:58;101071.22;;;10.28;91.03
81354;BME280;70810;52.038;8.524;2023-10-08T04:09:49;101061.31;;;10.30;90.25
81354;BME280;70810;52.038;8.524;2023-10-08T04:12:26;101056.13;;;10.25;90.90
81354;BME280;70810;52.038;8.524;2023-10-08T04:14:53;101054.84;;;10.11;88.75
81354;BME280;70810;52.038;8.524;2023-10-08T04:17:21;101062.78;;;10.14;88.60
81354;BME280;70810;52.038;8.524;2023-10-08T04:19:48;101056.38;;;10.18;88.93
81354;BME280;70810;52.038;8.524;2023-10-08T04:22:16;101048.19;;;10.22;90.01
81354;BME280;70810;52.038;8.524;2023-10-08T04:24:44;101046.13;;;10.31;90.16
81354;BME280;70810;52.038;8.524;2023-10-08T04:27:11;101053.25;;;10.30;88.82
81354;BME280;70810;52.038;8.524;2023-10-08T04:29:41;101068.81;;;10.20;87.87
81354;BME280;70810;52.038;8.524;2023-10-08T04:32:08;101066.50;;;10.36;87.78
81354;BME280;70810;52.038;8.524;2023-10-08T04:34:37;101058.41;;;10.38;88.39
81354;BME280;70810;52.038;8.524;2023-10-08T04:37:09;101052.19;;;10.37;89.07
81354;BME280;70810;52.038;8.524;2023-10-08T04:39:38;101057.50;;;10.39;87.56
81354;BME280;70810;52.038;8.524;2023-10-08T04:42:06;101047.53;;;10.42;88.00
81354;BME280;70810;52.038;8.524;2023-10-08T04:44:36;101042.97;;;10.44;88.11
81354;BME280;70810;52.038;8.524;2023-10-08T04:47:07;101053.19;;;10.58;87.04
81354;BME280;70810;52.038;8.524;2023-10-08T04:49:54;101048.22;;;10.48;87.40
81354;BME280;70810;52.038;8.524;2023-10-08T04:52:22;101055.22;;;10.52;86.63
81354;BME280;70810;52.038;8.524;2023-10-08T04:54:50;101078.34;;;10.56;86.07
81354;BME280;70810;52.038;8.524;2023-10-08T04:57:19;101081.44;;;10.69;86.68
81354;BME280;70810;52.038;8.524;2023-10-08T04:59:49;101076.94;;;10.69;86.54
81354;BME280;70810;52.038;8.524;2023-10-08T05:02:17;101062.91;;;10.62;86.46
81354;BME280;70810;52.038;8.524;2023-10-08T05:04:58;101069.84;;;10.68;86.10
81354;BME280;70810;52.038;8.524;2023-10-08T05:07:49;101092.06;;;10.72;85.23
81354;BME280;70810;52.038;8.524;2023-10-08T05:10:51;101092.13;;;10.70;85.68
81354;BME280;70810;52.038;8.524;2023-10-08T05:13:28;101129.47;;;10.76;85.55
81354;BME280;70810;52.038;8.524;2023-10-08T05:15:58;101121.91;;;10.88;85.63
81354;BME280;70810;52.038;8.524;2023-10-08T05:18:43;101141.13;;;11.00;85.83
81354;BME280;70810;52.038;8.524;2023-10-08T05:21:50;101135.59;;;11.05;83.74
81354;BME280;70810;52.038;8.524;2023-10-08T05:24:33;101140.25;;;11.00;84.31
81354;BME280;70810;52.038;8.524;2023-10-08T05:27:06;101133.78;;;11.06;85.08
81354;BME280;70810;52.038;8.524;2023-10-08T05:30:03;101149.03;;;11.05;85.07
81354;BME280;70810;52.038;8.524;2023-10-08T05:32:58;101162.50;;;11.04;85.56
81354;BME280;70810;52.038;8.524;2023-10-08T06:01:47;101177.78;;;11.01;86.52
81354;BME280;70810;52.038;8.524;2023-10-08T06:04:23;101176.47;;;11.13;86.20
81354;BME280;70810;52.038;8.524;2023-10-08T06:07:25;101177.38;;;11.12;85.27
81354;BME280;70810;52.038;8.524;2023-10-08T06:09:59;101175.56;;;11.13;83.89
81354;BME280;70810;52.038;8.524;2023-10-08T06:12:28;101186.47;;;11.08;84.39
81354;BME280;70810;52.038;8.524;2023-10-08T06:14:58;101183.25;;;10.98;85.62
81354;BME280;70810;52.038;8.524;2023-10-08T06:17:35;101199.69;;;11.14;85.24
81354;BME280;70810;52.038;8.524;2023-10-08T06:20:29;101204.38;;;11.33;84.04
81354;BME280;70810;52.038;8.524;2023-10-08T06:22:55;101219.75;;;11.29;84.52
81354;BME280;70810;52.038;8.524;2023-10-08T06:25:28;101214.38;;;11.29;84.01
81354;BME280;70810;52.038;8.524;2023-10-08T06:27:55;101221.00;;;11.19;84.80
81354;BME280;70810;52.038;8.524;2023-10-08T06:30:23;101219.09;;;11.23;84.47
81354;BME280;70810;52.038;8.524;2023-10-08T06:32:56;101203.47;;;11.34;84.36
81354;BME280;70810;52.038;8.524;2023-10-08T06:35:22;101206.00;;;11.13;85.17
81354;BME280;70810;52.038;8.524;2023-10-08T06:37:52;101212.75;;;11.00;86.20
81354;BME280;70810;52.038;8.524;2023-10-08T06:40:21;101217.97;;;11.03;85.75
81354;BME280;70810;52.038;8.524;2023-10-08T06:43:06;101219.94;;;11.23;85.14
81354;BME280;70810;52.038;8.524;2023-10-08T06:45:41;101252.16;;;11.48;84.21
81354;BME280;70810;52.038;8.524;2023-10-08T06:48:11;101259.03;;;11.32;84.60
81354;BME280;70810;52.038;8.524;2023-10-08T06:50:44;101254.34;;;11.13;85.06
81354;BME280;70810;52.038;8.524;2023-10-08T06:53:11;101252.78;;;11.31;85.64
81354;BME280;70810;52.038;8.524;2023-10-08T06:55:39;101262.81;;;11.26;86.19
81354;BME280;70810;52.038;8.524;2023-10-08T06:58:06;101270.38;;;11.40;86.25
81354;BME280;70810;52.038;8.524;2023-10-08T07:00:35;101282.13;;;11.63;84.28
81354;BME280;70810;52.038;8.524;2023-10-08T07:03:06;101262.34;;;11.64;84.43
81354;BME280;70810;52.038;8.524;2023-10-08T07:05:37;101294.06;;;11.77;84.36
81354;BME280;70810;52.038;8.524;2023-10-08T07:08:10;101292.84;;;11.63;85.54
81354;BME280;70810;52.038;8.524;2023-10-08T07:10:39;101288.34;;;11.63;85.39
81354;BME280;70810;52.038;8.524;2023-10-08T07:13:07;101285.59;;;11.65;85.47
81354;BME280;70810;52.038;8.524;2023-10-08T07:15:34;101284.22;;;11.78;84.51
81354;BME280;70810;52.038;8.524;2023-10-08T07:18:04;101295.72;;;11.82;84.38
81354;BME280;70810;52.038;8.524;2023-10-08T07:20:45;101297.25;;;11.89;84.81
81354;BME280;70810;52.038;8.524;2023-10-08T07:23:19;101277.00;;;12.04;84.14
81354;BME280;70810;52.038;8.524;2023-10-08T07:25:54;101283.88;;;12.11;83.98
81354;BME280;70810;52.038;8.524;2023-10-08T07:28:24;101282.13;;;12.10;83.70
81354;BME280;70810;52.038;8.524;2023-10-08T07:30:52;101278.34;;;12.16;83.79
81354;BME280;70810;52.038;8.524;2023-10-08T07:33:19;101284.94;;;12.30;83.71
81354;BME280;70810;52.038;8.524;2023-10-08T07:35:51;101265.03;;;12.35;82.70
81354;BME280;70810;52.038;8.524;2023-10-08T07:38:25;101279.84;;;12.67;81.08
81354;BME280;70810;52.038;8.524;2023-10-08T07:40:52;101275.53;;;12.85;81.07
81354;BME280;70810;52.038;8.524;2023-10-08T07:43:20;101279.16;;;13.04;80.35
81354;BME280;70810;52.038;8.524;2023-10-08T07:45:47;101288.75;;;13.32;79.02
81354;BME280;70810;52.038;8.524;2023-10-08T07:48:14;101284.81;;;13.41;78.60
81354;BME280;70810;52.038;8.524;2023-10-08T07:50:42;101292.00;;;13.40;79.09
81354;BME280;70810;52.038;8.524;2023-10-08T07:56:37;101306.22;;;13.44;79.34
81354;BME280;70810;52.038;8.524;2023-10-08T07:59:04;101303.13;;;13.33;80.67
81354;BME280;70810;52.038;8.524;2023-10-08T08:01:36;101302.84;;;13.39;79.06
81354;BME280;70810;52.038;8.524;2023-10-08T08:04:03;101313.09;;;13.51;78.54
81354;BME280;70810;52.038;8.524;2023-10-08T08:06:37;101327.16;;;13.78;77.07
81354;BME280;70810;52.038;8.524;2023-10-08T08:09:05;101331.13;;;13.90;75.58
81354;BME280;70810;52.038;8.524;2023-10-08T08:11:45;101344.56;;;14.30;73.26
81354;BME280;70810;52.038;8.524;2023-10-08T08:14:12;101344.84;;;14.24;75.39
81354;BME280;70810;52.038;8.524;2023-10-08T08:16:47;101339.31;;;14.27;74.57
81354;BME280;70810;52.038;8.524;2023-10-08T08:20:37;101326.22;;;13.59;74.61
81354;BME280;70810;52.038;8.524;2023-10-08T08:23:39;101334.03;;;13.86;71.89
81354;BME280;70810;52.038;8.524;2023-10-08T08:26:40;101313.19;;;14.08;72.96
81354;BME280;70810;52.038;8.524;2023-10-08T08:29:27;101300.59;;;14.83;71.08
81354;BME280;70810;52.038;8.524;2023-10-08T08:32:15;101317.06;;;15.14;67.52
81354;BME280;70810;52.038;8.524;2023-10-08T08:35:15;101317.50;;;15.06;65.98
81354;BME280;70810;52.038;8.524;2023-10-08T08:37:43;101320.38;;;14.66;66.19
81354;BME280;70810;52.038;8.524;2023-10-08T08:40:12;101338.13;;;14.13;67.78
81354;BME280;70810;52.038;8.524;2023-10-08T08:42:44;101345.00;;;14.21;67.93
81354;BME280;70810;52.038;8.524;2023-10-08T08:45:13;101374.53;;;13.84;68.05
81354;BME280;70810;52.038;8.524;2023-10-08T08:47:53;101382.94;;;14.17;67.82
81354;BME280;70810;52.038;8.524;2023-10-08T08:50:24;101374.94;;;14.73;66.02
81354;BME280;70810;52.038;8.524;2023-10-08T08:53:21;101394.41;;;14.80;66.65
81354;BME280;70810;52.038;8.524;2023-10-08T08:56:12;101403.03;;;14.88;66.89
81354;BME280;70810;52.038;8.524;2023-10-08T08:58:39;101399.06;;;14.95;65.18
81354;BME280;70810;52.038;8.524;2023-10-08T09:01:10;101383.19;;;15.43;61.99
81354;BME280;70810;52.038;8.524;2023-10-08T09:03:38;101375.81;;;15.10;65.04
81354;BME280;70810;52.038;8.524;2023-10-08T09:06:05;101377.69;;;14.90;63.90
81354;BME280;70810;52.038;8.524;2023-10-08T09:08:39;101373.91;;;15.12;64.12
81354;BME280;70810;52.038;8.524;2023-10-08T09:11:48;101393.72;;;15.13;64.65
81354;BME280;70810;52.038;8.524;2023-10-08T09:14:29;101425.53;;;15.25;64.83
81354;BME280;70810;52.038;8.524;2023-10-08T09:16:59;101414.34;;;15.50;62.67
81354;BME280;70810;52.038;8.524;2023-10-08T09:19:49;101388.38;;;15.11;64.19
81354;BME280;70810;52.038;8.524;2023-10-08T09:25:41;101366.09;;;14.88;65.20
81354;BME280;70810;52.038;8.524;2023-10-08T09:28:09;101356.00;;;14.92;65.98
81354;BME280;70810;52.038;8.524;2023-10-08T09:30:39;101358.91;;;14.70;66.92
81354;BME280;70810;52.038;8.524;2023-10-08T09:33:09;101325.59;;;14.69;65.96
81354;BME280;70810;52.038;8.524;2023-10-08T09:36:04;101363.53;;;14.47;64.81
81354;BME280;70810;52.038;8.524;2023-10-08T09:38:58;101348.19;;;14.29;66.03
81354;BME280;70810;52.038;8.524;2023-10-08T09:41:27;101351.94;;;14.64;65.60
81354;BME280;70810;52.038;8.524;2023-10-08T09:43:55;101351.19;;;14.80;65.56
81354;BME280;70810;52.038;8.524;2023-10-08T09:46:29;101355.94;;;14.94;64.89
81354;BME280;70810;52.038;8.524;2023-10-08T09:48:59;101381.13;;;14.94;65.65
81354;BME280;70810;52.038;8.524;2023-10-08T09:51:29;101375.16;;;15.05;63.40
81354;BME280;70810;52.038;8.524;2023-10-08T09:54:05;101404.88;;;15.41;63.57
81354;BME280;70810;52.038;8.524;2023-10-08T09:57:07;101406.88;;;15.38;63.13
81354;BME280;70810;52.038;8.524;2023-10-08T09:59:53;101421.13;;;15.76;62.90
81354;BME280;70810;52.038;8.524;2023-10-08T10:08:08;101446.22;;;16.64;58.00
81354;BME280;70810;52.038;8.524;2023-10-08T10:10:36;101444.75;;;16.41;57.91
81354;BME280;70810;52.038;8.524;2023-10-08T10:13:27;101429.03;;;15.27;61.27
81354;BME280;70810;52.038;8.524;2023-10-08T10:16:13;101445.41;;;15.78;60.93
81354;BME280;70810;52.038;8.524;2023-10-08T10:18:44;101434.88;;;16.07;62.51
81354;BME280;70810;52.038;8.524;2023-10-08T10:23:49;101436.28;;;16.81;58.11
81354;BME280;70810;52.038;8.524;2023-10-08T10:26:22;101434.88;;;16.73;58.21
81354;BME280;70810;52.038;8.524;2023-10-08T10:29:21;101420.69;;;16.68;58.03
81354;BME280;70810;52.038;8.524;2023-10-08T10:31:54;101412.47;;;16.54;58.03
81354;BME280;70810;52.038;8.524;2023-10-08T10:34:32;101409.38;;;16.93;56.96
81354;BME280;70810;52.038;8.524;2023-10-08T10:37:08;101414.78;;;16.93;55.28
81354;BME280;70810;52.038;8.524;2023-10-08T10:43:06;101390.88;;;15.51;60.38
81354;BME280;70810;52.038;8.524;2023-10-08T10:45:55;101390.63;;;15.73;60.50
81354;BME280;70810;52.038;8.524;2023-10-08T10:48:55;101396.41;;;15.84;58.82
81354;BME280;70810;52.038;8.524;2023-10-08T10:51:44;101397.34;;;16.00;58.12
81354;BME280;70810;52.038;8.524;2023-10-08T10:54:16;101400.47;;;16.09;57.23
81354;BME280;70810;52.038;8.524;2023-10-08T11:00:07;101403.34;;;16.23;56.87
81354;BME280;70810;52.038;8.524;2023-10-08T11:02:48;101397.06;;;16.22;57.95
81354;BME280;70810;52.038;8.524;2023-10-08T11:05:18;101394.44;;;16.37;57.09
81354;BME280;70810;52.038;8.524;2023-10-08T11:07:54;101389.50;;;16.61;56.13
81354;BME280;70810;52.038;8.524;2023-10-08T11:10:25;101400.25;;;16.63;57.38
81354;BME280;70810;52.038;8.524;2023-10-08T11:12:56;101389.88;;;16.21;58.95
81354;BME280;70810;52.038;8.524;2023-10-08T11:15:28;101377.03;;;16.09;58.71
81354;BME280;70810;52.038;8.524;2023-10-08T11:18:12;101362.19;;;15.48;60.36
81354;BME280;70810;52.038;8.524;2023-10-08T11:24:09;101370.44;;;15.80;59.92
81354;BME280;70810;52.038;8.524;2023-10-08T11:30:07;101387.63;;;16.30;59.51
81354;BME280;70810;52.038;8.524;2023-10-08T11:32:39;101396.63;;;16.46;57.59
81354;BME280;70810;52.038;8.524;2023-10-08T11:35:14;101399.81;;;16.70;57.92
81354;BME280;70810;52.038;8.524;2023-10-08T11:37:45;101406.09;;;16.71;54.63
81354;BME280;70810;52.038;8.524;2023-10-08T11:40:23;101397.22;;;16.19;56.84
81354;BME280;70810;52.038;8.524;2023-10-08T11:42:54;101397.75;;;16.26;56.09
81354;BME280;70810;52.038;8.524;2023-10-08T11:45:22;101392.69;;;16.36;56.90
81354;BME280;70810;52.038;8.524;2023-10-08T11:51:22;101391.78;;;15.69;59.34
81354;BME280;70810;52.038;8.524;2023-10-08T11:54:34;101382.53;;;15.38;59.78
81354;BME280;70810;52.038;8.524;2023-10-08T11:57:16;101372.03;;;15.49;59.83
81354;BME280;70810;52.038;8.524;2023-10-08T11:59:47;101374.72;;;15.49;59.71
81354;BME280;70810;52.038;8.524;2023-10-08T12:02:22;101364.19;;;15.44;60.17
81354;BME280;70810;52.038;8.524;2023-10-08T12:05:10;101376.16;;;15.39;59.20
81354;BME280;70810;52.038;8.524;2023-10-08T12:08:12;101366.06;;;15.42;58.63
81354;BME280;70810;52.038;8.524;2023-10-08T12:11:14;101366.88;;;15.44;59.14
81354;BME280;70810;52.038;8.524;2023-10-08T12:13:50;101357.78;;;15.63;57.90
81354;BME280;70810;52.038;8.524;2023-10-08T12:16:34;101347.28;;;15.74;58.91
81354;BME280;70810;52.038;8.524;2023-10-08T12:19:02;101337.44;;;15.91;59.39
81354;BME280;70810;52.038;8.524;2023-10-08T12:21:42;101323.75;;;15.76;60.58
81354;BME280;70810;52.038;8.524;2023-10-08T12:24:30;101321.94;;;15.77;60.53
81354;BME280;70810;52.038;8.524;2023-10-08T12:27:22;101328.53;;;15.89;59.71
81354;BME280;70810;52.038;8.524;2023-10-08T12:30:25;101315.22;;;15.84;58.71
81354;BME280;70810;52.038;8.524;2023-10-08T12:32:55;101301.72;;;16.00;58.86
81354;BME280;70810;52.038;8.524;2023-10-08T12:39:26;101292.13;;;16.10;57.72
81354;BME280;70810;52.038;8.524;2023-10-08T12:53:07;101295.06;;;15.39;65.12
81354;BME280;70810;52.038;8.524;2023-10-08T12:55:33;101294.19;;;15.38;65.47
81354;BME280;70810;52.038;8.524;2023-10-08T12:58:04;101302.16;;;15.41;66.00
81354;BME280;70810;52.038;8.524;2023-10-08T13:00:35;101287.50;;;15.45;65.12
81354;BME280;70810;52.038;8.524;2023-10-08T13:03:17;101299.38;;;15.43;65.09
81354;BME280;70810;52.038;8.524;2023-10-08T13:06:20;101299.91;;;15.50;66.25
81354;BME280;70810;52.038;8.524;2023-10-08T13:08:50;101289.19;;;15.48;65.41
81354;BME280;70810;52.038;8.524;2023-10-08T13:11:18;101295.03;;;15.56;65.06
81354;BME280;70810;52.038;8.524;2023-10-08T13:13:49;101289.88;;;15.52;65.35
81354;BME280;70810;52.038;8.524;2023-10-08T13:16:16;101291.41;;;15.40;65.46
81354;BME280;70810;52.038;8.524;2023-10-08T13:21:56;101290.31;;;15.09;66.77
81354;BME280;70810;52.038;8.524;2023-10-08T13:24:24;101288.22;;;14.97;67.12
81354;BME280;70810;52.038;8.524;2023-10-08T13:26:56;101292.53;;;15.01;67.03
81354;BME280;70810;52.038;8.524;2023-10-08T13:29:55;101296.16;;;15.00;67.09
81354;BME280;70810;52.038;8.524;2023-10-08T13:32:21;101297.28;;;14.96;66.82
81354;BME280;70810;52.038;8.524;2023-10-08T13:34:48;101296.50;;;15.28;65.37
81354;BME280;70810;52.038;8.524;2023-10-08T13:37:15;101295.84;;;15.41;65.49
81354;BME280;70810;52.038;8.524;2023-10-08T13:39:44;101303.59;;;15.64;65.07
81354;BME280;70810;52.038;8.524;2023-10-08T13:42:11;101304.72;;;15.78;64.38
81354;BME280;70810;52.038;8.524;2023-10-08T13:44:44;101299.66;;;15.72;64.61
81354;BME280;70810;52.038;8.524;2023-10-08T13:47:11;101299.88;;;15.84;64.55
81354;BME280;70810;52.038;8.524;2023-10-08T13:49:40;101304.47;;;16.16;63.60
81354;BME280;70810;52.038;8.524;2023-10-08T13:52:08;101298.97;;;16.33;61.78
81354;BME280;70810;52.038;8.524;2023-10-08T13:54:35;101297.31;;;16.15;62.08
81354;BME280;70810;52.038;8.524;2023-10-08T13:57:08;101283.00;;;16.13;61.70
81354;BME280;70810;52.038;8.524;2023-10-08T13:59:40;101285.25;;;16.04;62.48
81354;BME280;70810;52.038;8.524;2023-10-08T14:02:07;101296.78;;;16.24;61.64
81354;BME280;70810;52.038;8.524;2023-10-08T14:04:39;101289.47;;;16.26;61.37
81354;BME280;70810;52.038;8.524;2023-10-08T14:07:09;101308.41;;;16.26;60.76
81354;BME280;70810;52.038;8.524;2023-10-08T14:09:37;101304.44;;;15.66;61.23
81354;BME280;70810;52.038;8.524;2023-10-08T14:12:08;101311.75;;;15.82;60.22
81354;BME280;70810;52.038;8.524;2023-10-08T14:14:36;101296.31;;;15.66;61.01
81354;BME280;70810;52.038;8.524;2023-10-08T14:17:07;101298.31;;;15.96;60.95
81354;BME280;70810;52.038;8.524;2023-10-08T14:19:55;101303.00;;;15.77;61.10
81354;BME280;70810;52.038;8.524;2023-10-08T14:22:33;101283.50;;;15.53;61.67
81354;BME280;70810;52.038;8.524;2023-10-08T14:25:08;101283.38;;;15.38;62.60
81354;BME280;70810;52.038;8.524;2023-10-08T14:34:37;101261.84;;;15.19;62.65
81354;BME280;70810;52.038;8.524;2023-10-08T14:37:21;101258.19;;;15.38;61.45
81354;BME280;70810;52.038;8.524;2023-10-08T14:40:07;101273.75;;;15.50;62.01
81354;BME280;70810;52.038;8.524;2023-10-08T14:43:06;101272.41;;;15.24;63.45
81354;BME280;70810;52.038;8.524;2023-10-08T14:49:03;101237.28;;;14.89;62.99
81354;BME280;70810;52.038;8.524;2023-10-08T14:51:37;101251.50;;;14.75;63.98
81354;BME280;70810;52.038;8.524;2023-10-08T14:54:06;101274.88;;;14.94;64.07
81354;BME280;70810;52.038;8.524;2023-10-08T14:56:35;101276.06;;;14.88;63.43
81354;BME280;70810;52.038;8.524;2023-10-08T14:59:03;101279.66;;;14.88;64.25
81354;BME280;70810;52.038;8.524;2023-10-08T15:01:32;101291.19;;;14.92;64.38
81354;BME280;70810;52.038;8.524;2023-10-08T15:04:03;101273.75;;;14.80;63.38
81354;BME280;70810;52.038;8.524;2023-10-08T15:06:31;101274.16;;;14.90;63.16
81354;BME280;70810;52.038;8.524;2023-10-08T15:08:59;101282.34;;;14.88;64.29
81354;BME280;70810;52.038;8.524;2023-10-08T15:11:26;101272.16;;;14.76;64.56
81354;BME280;70810;52.038;8.524;2023-10-08T15:13:57;101279.75;;;14.68;63.90
81354;BME280;70810;52.038;8.524;2023-10-08T15:16:23;101275.81;;;14.75;64.71
81354;BME280;70810;52.038;8.524;2023-10-08T15:18:52;101272.63;;;14.84;63.71
81354;BME280;70810;52.038;8.524;2023-10-08T15:25:07;101281.72;;;15.01;63.64
81354;BME280;70810;52.038;8.524;2023-10-08T15:27:36;101272.03;;;15.14;64.88
81354;BME280;70810;52.038;8.524;2023-10-08T15:30:15;101266.94;;;14.90;65.53
81354;BME280;70810;52.038;8.524;2023-10-08T15:33:15;101259.28;;;14.81;65.58
81354;BME280;70810;52.038;8.524;2023-10-08T15:35:43;101245.47;;;14.70;65.57
81354;BME280;70810;52.038;8.524;2023-10-08T15:38:40;101244.91;;;14.63;66.23
81354;BME280;70810;52.038;8.524;2023-10-08T15:41:10;101244.91;;;14.63;65.80
81354;BME280;70810;52.038;8.524;2023-10-08T15:43:39;101253.66;;;14.68;64.85
81354;BME280;70810;52.038;8.524;2023-10-08T15:46:08;101270.50;;;14.73;65.33